Time;durP1;ratioP1;P1;durP2;ratioP2;P2;SDS_P1;SDS_P2;PMS_P1;PMS_P2;Temp;Humidity;BMP_temperature;BMP_pressure;BME280_temperature;BME280_humidity;BME280_pressure;Samples;Min_cycle;Max_cycle;Signal;HPM_P1;HPM_P2
2023/08/25 00:00:25;;;;;;;59.40;38.60;;;;;;;25.50;55.32;93631.63;5053741;28;20399;-92
2023/08/25 00:02:50;;;;;;;47.85;36.78;;;;;;;25.49;55.65;93617.06;5050295;28;20408;-92
2023/08/25 00:05:15;;;;;;;48.30;38.45;;;;;;;25.50;55.51;93617.78;5051994;28;20033;-93
2023/08/25 00:07:41;;;;;;;47.90;37.45;;;;;;;25.49;55.41;93613.53;5044167;28;20036;-92
2023/08/25 00:10:07;;;;;;;48.55;37.55;;;;;;;25.49;55.47;93610.78;5032292;28;20559;-92
2023/08/25 00:12:32;;;;;;;51.33;39.25;;;;;;;25.49;55.59;93602.47;5060556;28;20037;-93
2023/08/25 00:14:58;;;;;;;49.28;34.22;;;;;;;25.50;55.33;93599.16;5030842;28;20033;-93
2023/08/25 00:17:23;;;;;;;46.30;33.53;;;;;;;25.52;55.31;93590.28;5036350;28;20033;-92
2023/08/25 00:19:48;;;;;;;48.30;36.72;;;;;;;25.48;55.42;93581.63;5033690;28;20036;-93
2023/08/25 00:22:14;;;;;;;49.50;37.22;;;;;;;25.48;55.52;93573.31;5033072;28;20487;-91
2023/08/25 00:24:39;;;;;;;48.65;36.53;;;;;;;25.48;55.36;93565.00;5047934;28;20534;-92
2023/08/25 00:27:05;;;;;;;47.72;35.45;;;;;;;25.49;55.46;93558.94;5042677;28;20526;-93
2023/08/25 00:29:30;;;;;;;47.90;37.28;;;;;;;25.48;55.15;93548.41;5033952;28;20099;-93
2023/08/25 00:31:56;;;;;;;47.67;38.47;;;;;;;25.48;55.51;93540.09;5039308;28;20036;-92
2023/08/25 00:34:21;;;;;;;46.78;36.22;;;;;;;25.47;55.33;93536.59;5046495;28;21560;-93
2023/08/25 00:36:47;;;;;;;45.75;34.90;;;;;;;25.47;55.43;93514.44;5035066;28;20048;-92
2023/08/25 00:39:12;;;;;;;44.15;34.00;;;;;;;25.46;55.43;93515.00;5047285;28;20055;-92
2023/08/25 00:41:38;;;;;;;46.35;34.47;;;;;;;25.43;55.75;93503.00;5036282;28;20028;-93
2023/08/25 00:44:03;;;;;;;48.55;36.08;;;;;;;25.44;55.45;93500.97;5052351;28;20098;-92
2023/08/25 00:46:29;;;;;;;47.15;34.97;;;;;;;25.43;55.43;93485.66;5050554;28;20063;-92
2023/08/25 00:48:55;;;;;;;45.63;33.67;;;;;;;25.44;55.41;93479.56;5035539;28;20049;-92
2023/08/25 00:51:20;;;;;;;47.42;34.40;;;;;;;25.43;55.42;93472.56;5047004;28;20037;-93
2023/08/25 00:53:46;;;;;;;41.90;31.95;;;;;;;25.42;55.42;93465.56;5060720;28;20495;-93
2023/08/25 00:56:11;;;;;;;41.67;31.95;;;;;;;25.44;55.49;93456.69;5051379;28;20051;-93
2023/08/25 00:58:37;;;;;;;46.20;33.83;;;;;;;25.42;55.42;93446.19;5045986;28;20048;-93
2023/08/25 01:01:03;;;;;;;43.97;33.95;;;;;;;25.40;55.46;93448.75;5048643;28;20040;-93
2023/08/25 01:03:29;;;;;;;44.90;33.38;;;;;;;25.42;55.34;93434.38;5056033;28;20551;-92
2023/08/25 01:05:54;;;;;;;44.97;32.90;;;;;;;25.43;55.54;93425.50;5050834;28;20098;-93
2023/08/25 01:08:20;;;;;;;39.78;29.50;;;;;;;25.43;55.52;93419.97;5051644;28;20040;-93
2023/08/25 01:10:50;;;;;;;39.63;31.20;;;;;;;25.40;55.69;93409.28;5008291;28;20415;-92
2023/08/25 01:13:23;;;;;;;44.10;32.47;;;;;;;25.41;55.77;93403.19;5040052;28;20037;-93
2023/08/25 01:15:49;;;;;;;45.95;32.70;;;;;;;25.40;55.65;93392.69;5025704;28;20033;-92
2023/08/25 01:18:20;;;;;;;39.05;30.17;;;;;;;25.39;55.48;93386.41;5011228;28;20076;-92
2023/08/25 01:20:46;;;;;;;40.55;31.35;;;;;;;25.41;55.54;93374.78;5014941;28;20526;-93
2023/08/25 01:23:47;;;;;;;41.72;30.75;;;;;;;25.39;55.64;93371.81;5003841;28;21032;-92
2023/08/25 01:26:12;;;;;;;41.28;30.70;;;;;;;25.42;55.30;93354.84;5011400;28;20416;-92
2023/08/25 01:28:41;;;;;;;44.25;30.42;;;;;;;25.41;55.54;93366.47;5011431;28;20049;-92
2023/08/25 01:31:06;;;;;;;40.83;31.27;;;;;;;25.41;55.50;93355.41;5003761;28;20053;-93
2023/08/25 01:33:32;;;;;;;40.97;31.63;;;;;;;25.39;55.64;93346.91;5022737;28;20053;-92
2023/08/25 01:36:02;;;;;;;39.38;31.08;;;;;;;25.39;55.38;93350.44;5008125;28;20048;-92
2023/08/25 01:38:34;;;;;;;41.55;31.80;;;;;;;25.39;55.38;93361.50;5029685;28;20411;-93
2023/08/25 01:41:14;;;;;;;39.33;29.05;;;;;;;25.43;55.50;93366.66;5019263;28;20511;-93
2023/08/25 01:43:44;;;;;;;39.85;29.02;;;;;;;25.40;55.66;93376.06;5062043;28;20408;-93
2023/08/25 01:46:09;;;;;;;39.53;30.10;;;;;;;25.41;55.58;93383.06;5046587;28;20415;-93
2023/08/25 01:48:35;;;;;;;36.30;28.45;;;;;;;25.40;55.45;93410.00;5045278;28;20053;-93
2023/08/25 01:51:00;;;;;;;37.30;28.13;;;;;;;25.39;55.51;93400.25;5048087;28;20496;-93
2023/08/25 01:53:25;;;;;;;36.58;28.90;;;;;;;25.39;55.42;93407.81;5050980;28;20040;-93
2023/08/25 01:55:51;;;;;;;38.40;28.33;;;;;;;25.36;55.30;93420.72;5040856;28;20041;-93
2023/08/25 01:58:16;;;;;;;37.92;29.60;;;;;;;25.37;55.61;93413.16;5031558;28;20041;-93
2023/08/25 02:00:42;;;;;;;37.13;28.77;;;;;;;25.35;55.12;93429.56;5042435;28;20040;-92
2023/08/25 02:03:07;;;;;;;37.05;28.50;;;;;;;25.34;55.56;93415.00;5050847;28;20032;-93
2023/08/25 02:05:33;;;;;;;37.75;27.15;;;;;;;25.34;55.33;93419.81;5045173;28;20041;-92
2023/08/25 02:07:58;;;;;;;34.60;27.58;;;;;;;25.33;55.68;93413.56;5049270;28;20056;-92
2023/08/25 02:10:24;;;;;;;32.50;26.60;;;;;;;25.33;55.63;93402.50;5050023;28;20051;-92
2023/08/25 02:12:49;;;;;;;37.67;28.35;;;;;;;25.32;55.50;93395.47;5046919;28;20032;-92
2023/08/25 02:15:14;;;;;;;37.15;27.13;;;;;;;25.32;55.65;93392.72;5030808;28;20056;-92
2023/08/25 02:17:40;;;;;;;35.90;27.35;;;;;;;25.33;55.26;93394.19;5053757;28;20457;-92
2023/08/25 02:20:07;;;;;;;36.90;27.02;;;;;;;25.33;55.62;93382.38;5047352;28;20036;-92
2023/08/25 02:22:33;;;;;;;35.75;27.92;;;;;;;25.32;55.91;93387.19;5034467;28;20037;-92
2023/08/25 02:24:58;;;;;;;32.90;26.77;;;;;;;25.33;55.81;93374.06;5033513;28;20394;-93
2023/08/25 02:27:23;;;;;;;33.58;24.85;;;;;;;25.34;55.67;93370.00;5039977;28;20052;-91
2023/08/25 02:29:49;;;;;;;34.80;24.30;;;;;;;25.32;55.68;93356.75;5032669;28;20048;-92
2023/08/25 02:32:14;;;;;;;35.15;25.98;;;;;;;25.35;55.72;93336.22;5034075;28;20048;-93
2023/08/25 02:34:40;;;;;;;35.72;27.77;;;;;;;25.33;55.65;93327.03;5030982;28;20044;-93
2023/08/25 02:37:05;;;;;;;33.47;25.92;;;;;;;25.34;55.32;93323.69;5044103;28;20044;-92
2023/08/25 02:39:31;;;;;;;36.50;26.75;;;;;;;25.32;55.53;93326.31;5052097;28;20032;-93
2023/08/25 02:41:56;;;;;;;32.38;23.88;;;;;;;25.34;55.24;93337.53;5050133;28;20044;-92
2023/08/25 02:44:21;;;;;;;31.92;23.73;;;;;;;25.35;55.31;93327.94;5037433;28;20044;-93
2023/08/25 02:46:47;;;;;;;28.98;22.83;;;;;;;25.33;55.32;93316.69;5046782;28;20044;-92
2023/08/25 02:49:13;;;;;;;31.45;24.13;;;;;;;25.34;55.23;93309.13;5032719;28;20043;-92
2023/08/25 02:51:38;;;;;;;31.30;24.13;;;;;;;25.33;55.64;93319.47;5045858;28;20040;-92
2023/08/25 02:54:04;;;;;;;32.78;22.58;;;;;;;25.34;55.45;93307.09;5030038;28;20106;-92
2023/08/25 02:56:29;;;;;;;26.52;21.15;;;;;;;25.34;55.46;93304.31;5033984;28;20032;-92
2023/08/25 02:58:55;;;;;;;26.48;22.17;;;;;;;25.34;55.33;93293.25;5034116;28;20584;-92
2023/08/25 03:01:21;;;;;;;29.65;23.98;;;;;;;25.34;55.42;93295.28;5050180;28;20044;-93
2023/08/25 03:03:47;;;;;;;29.83;21.73;;;;;;;25.35;55.52;93288.44;5030048;28;20044;-92
2023/08/25 03:06:13;;;;;;;27.77;21.70;;;;;;;25.31;55.29;93277.78;5049226;28;20688;-93
2023/08/25 03:08:41;;;;;;;27.27;21.15;;;;;;;25.35;55.45;93277.38;5051062;28;20137;-93
2023/08/25 03:11:07;;;;;;;28.85;21.13;;;;;;;25.33;55.45;93275.19;5046220;28;20052;-92
2023/08/25 03:13:32;;;;;;;26.73;21.30;;;;;;;25.33;55.22;93260.63;5047930;28;20915;-93
2023/08/25 03:16:01;;;;;;;28.20;22.65;;;;;;;25.33;55.30;93255.81;5039158;28;20036;-93
2023/08/25 03:18:26;;;;;;;29.42;22.77;;;;;;;25.32;55.28;93248.81;5046775;28;20184;-92
2023/08/25 03:20:52;;;;;;;26.15;20.45;;;;;;;25.33;55.32;93239.22;5050596;28;20037;-93
2023/08/25 03:23:17;;;;;;;31.20;22.55;;;;;;;25.32;55.27;93245.31;5041824;28;20396;-92
2023/08/25 03:25:43;;;;;;;27.38;21.00;;;;;;;25.33;55.24;93238.50;5036703;28;20053;-92
2023/08/25 03:28:09;;;;;;;29.63;21.35;;;;;;;25.31;55.22;93239.03;5050051;28;20083;-93
2023/08/25 03:30:34;;;;;;;24.10;18.98;;;;;;;25.30;55.41;93237.56;5033295;28;20344;-92
2023/08/25 03:33:00;;;;;;;27.30;20.65;;;;;;;25.30;55.47;93237.56;5033648;28;20060;-92
2023/08/25 03:35:25;;;;;;;26.73;19.98;;;;;;;25.33;55.24;93241.25;5043509;28;20041;-92
2023/08/25 03:37:50;;;;;;;25.92;19.67;;;;;;;25.31;54.98;93232.78;5038966;28;20508;-92
2023/08/25 03:40:18;;;;;;;26.20;18.60;;;;;;;25.30;55.39;93236.84;5043557;28;20376;-94
2023/08/25 03:42:44;;;;;;;23.08;18.15;;;;;;;25.30;55.42;93234.81;5043408;28;20045;-92
2023/08/25 03:45:09;;;;;;;24.88;19.20;;;;;;;25.31;55.14;93233.50;5056438;28;20029;-92
2023/08/25 03:47:35;;;;;;;22.77;18.25;;;;;;;25.29;55.24;93236.09;5047226;28;20033;-93
2023/08/25 03:50:00;;;;;;;26.50;19.73;;;;;;;25.30;55.04;93231.31;5041937;28;20089;-92
2023/08/25 03:52:26;;;;;;;25.83;19.33;;;;;;;25.30;55.29;93228.53;5043831;28;20090;-92
2023/08/25 03:54:51;;;;;;;23.92;18.50;;;;;;;25.30;55.35;93228.53;5037883;28;20041;-93
2023/08/25 03:57:17;;;;;;;24.45;17.83;;;;;;;25.26;55.22;93218.59;5047114;28;20351;-92
2023/08/25 03:59:42;;;;;;;25.58;19.70;;;;;;;25.28;55.37;93218.03;5059330;28;20064;-91
2023/08/25 04:02:08;;;;;;;24.13;18.08;;;;;;;25.28;55.29;93231.88;5049322;28;20047;-92
2023/08/25 04:04:33;;;;;;;24.10;18.35;;;;;;;25.27;55.37;93233.91;5036983;28;20044;-93
2023/08/25 04:06:59;;;;;;;22.10;17.48;;;;;;;25.26;55.24;93228.91;5035021;28;20078;-92
2023/08/25 04:09:24;;;;;;;23.48;16.88;;;;;;;25.27;55.31;93224.84;5045758;28;20036;-93
2023/08/25 04:11:50;;;;;;;24.23;19.17;;;;;;;25.25;55.40;93219.88;5036041;28;20045;-93
2023/08/25 04:14:15;;;;;;;21.55;17.90;;;;;;;25.26;55.02;93223.38;5044100;28;20033;-93
2023/08/25 04:16:41;;;;;;;23.40;18.17;;;;;;;25.25;55.43;93217.13;5052634;28;20051;-92
2023/08/25 04:19:08;;;;;;;23.20;17.90;;;;;;;25.23;55.43;93225.25;5045458;28;20033;-93
2023/08/25 04:21:34;;;;;;;25.65;19.33;;;;;;;25.25;55.55;93227.44;5049502;28;20048;-92
2023/08/25 04:23:59;;;;;;;26.10;20.38;;;;;;;25.26;55.50;93218.59;5049862;28;20037;-93
2023/08/25 04:26:25;;;;;;;23.70;18.48;;;;;;;25.22;55.28;93220.25;5042185;28;20075;-93
2023/08/25 04:28:50;;;;;;;22.92;17.58;;;;;;;25.24;55.32;93215.66;5030665;28;20189;-93
2023/08/25 04:31:15;;;;;;;24.25;18.15;;;;;;;25.25;55.31;93219.16;5045120;28;20037;-92
2023/08/25 04:33:41;;;;;;;22.73;17.38;;;;;;;25.25;55.48;93227.44;5047250;28;20044;-93
2023/08/25 04:36:06;;;;;;;36.60;16.55;;;;;;;25.21;55.53;93236.13;5043385;28;20041;-93
2023/08/25 04:38:32;;;;;;;18.80;15.45;;;;;;;25.22;55.33;93234.84;5047540;28;20041;-92
2023/08/25 04:40:57;;;;;;;19.73;15.88;;;;;;;25.23;55.25;93252.91;5060255;28;20040;-93
2023/08/25 04:43:24;;;;;;;19.90;15.10;;;;;;;25.23;55.24;93241.84;5032880;28;20041;-93
2023/08/25 04:45:49;;;;;;;19.48;14.57;;;;;;;25.25;55.02;93235.75;5049143;28;20037;-93
2023/08/25 04:48:14;;;;;;;21.77;16.15;;;;;;;25.23;55.11;93230.78;5041746;28;20091;-92
2023/08/25 04:50:40;;;;;;;18.67;14.88;;;;;;;25.27;55.11;93238.69;5046361;28;20049;-93
2023/08/25 04:53:05;;;;;;;19.95;15.68;;;;;;;25.26;55.18;93235.19;5033075;28;20045;-93
2023/08/25 04:55:31;;;;;;;23.20;15.45;;;;;;;25.25;55.36;93236.47;5033296;28;20040;-92
2023/08/25 04:57:56;;;;;;;18.95;15.27;;;;;;;25.24;55.32;93235.00;5051501;28;20446;-92
2023/08/25 05:00:22;;;;;;;17.52;13.55;;;;;;;25.26;55.07;93243.50;5051499;28;20044;-93
2023/08/25 05:02:48;;;;;;;20.05;14.48;;;;;;;25.25;55.07;93235.75;5050776;28;20064;-92
2023/08/25 05:05:14;;;;;;;21.10;14.27;;;;;;;25.24;55.27;93235.00;5040273;28;20041;-92
2023/08/25 05:07:40;;;;;;;17.67;13.82;;;;;;;25.24;55.19;93228.75;5048957;28;20553;-92
2023/08/25 05:10:06;;;;;;;20.02;15.18;;;;;;;25.25;55.14;93228.19;5041097;28;20399;-92
2023/08/25 05:12:32;;;;;;;16.40;13.02;;;;;;;25.27;54.90;93233.91;5051062;28;20047;-92
2023/08/25 05:14:59;;;;;;;17.25;13.05;;;;;;;25.28;55.13;93226.31;5061808;28;20037;-92
2023/08/25 05:17:24;;;;;;;17.02;13.85;;;;;;;25.26;55.29;93232.41;5049417;28;20040;-93
2023/08/25 05:19:52;;;;;;;17.23;12.80;;;;;;;25.26;55.06;93235.19;5045819;28;20048;-92
2023/08/25 05:22:18;;;;;;;19.33;13.07;;;;;;;25.27;54.92;93224.84;5049000;28;20063;-93
2023/08/25 05:24:45;;;;;;;16.90;13.48;;;;;;;25.27;54.95;93233.16;5032996;28;20595;-93
2023/08/25 05:27:10;;;;;;;14.07;11.95;;;;;;;25.28;55.18;93223.56;5049062;28;20033;-92
2023/08/25 05:29:35;;;;;;;14.18;11.70;;;;;;;25.28;55.05;93229.84;5032056;28;20060;-92
2023/08/25 05:32:01;;;;;;;16.48;12.45;;;;;;;25.27;55.07;93235.94;5045005;28;20044;-92
2023/08/25 05:34:27;;;;;;;15.77;12.05;;;;;;;25.29;55.31;93227.81;5049576;28;20063;-92
2023/08/25 05:36:53;;;;;;;13.55;11.82;;;;;;;25.31;54.72;93224.47;5035739;28;20048;-92
2023/08/25 05:39:20;;;;;;;16.42;12.88;;;;;;;25.29;55.08;93227.81;5031798;28;20056;-92
2023/08/25 05:41:45;;;;;;;14.63;10.85;;;;;;;25.31;55.08;93230.00;5021850;28;20037;-92
2023/08/25 05:44:11;;;;;;;14.18;10.75;;;;;;;25.35;54.88;93233.09;5035086;28;20044;-93
2023/08/25 05:46:36;;;;;;;14.77;12.00;;;;;;;25.30;54.83;93239.59;5033958;28;20045;-92
2023/08/25 05:49:02;;;;;;;18.85;14.35;;;;;;;25.28;54.99;93232.59;5033418;28;20044;-92
2023/08/25 05:51:27;;;;;;;13.73;10.30;;;;;;;25.29;55.20;93225.03;5031938;28;20512;-92
2023/08/25 05:53:53;;;;;;;17.77;10.93;;;;;;;25.30;55.04;93225.78;5034927;28;20648;-92
2023/08/25 05:56:18;;;;;;;14.48;11.27;;;;;;;25.28;55.09;93232.59;5036847;28;20041;-92
2023/08/25 05:58:44;;;;;;;14.40;10.52;;;;;;;25.31;54.78;93227.97;5051081;28;20082;-94
2023/08/25 06:01:10;;;;;;;11.50;9.82;;;;;;;25.30;55.14;93231.31;5034802;28;20037;-92
2023/08/25 06:03:36;;;;;;;15.10;11.38;;;;;;;25.29;55.17;93236.09;5045111;28;20101;-92
2023/08/25 06:06:01;;;;;;;13.07;10.90;;;;;;;25.30;54.92;93237.56;5034603;28;20373;-92
2023/08/25 06:08:27;;;;;;;14.48;10.18;;;;;;;25.33;54.83;93232.94;5040988;28;20553;-92
2023/08/25 06:10:52;;;;;;;14.45;9.15;;;;;;;25.34;54.85;93237.91;5050134;28;20498;-91
2023/08/25 06:13:18;;;;;;;12.60;10.30;;;;;;;25.33;55.12;93239.22;5041413;28;20037;-92
2023/08/25 06:15:43;;;;;;;10.55;8.05;;;;;;;25.34;55.09;93229.59;5050221;28;20044;-93
2023/08/25 06:18:09;;;;;;;11.52;9.10;;;;;;;25.37;54.62;93228.47;5045111;28;20072;-93
2023/08/25 06:20:35;;;;;;;10.93;8.63;;;;;;;25.37;54.94;93227.75;5050859;28;20078;-92
2023/08/25 06:23:00;;;;;;;10.85;8.48;;;;;;;25.37;54.87;93217.41;5039974;28;20043;-92
2023/08/25 06:25:26;;;;;;;14.15;9.02;;;;;;;25.39;54.62;93217.59;5050506;28;20040;-92
2023/08/25 06:27:51;;;;;;;10.07;7.13;;;;;;;25.42;54.65;93213.69;5038075;28;20033;-91
2023/08/25 06:30:17;;;;;;;9.25;7.50;;;;;;;25.42;54.82;93221.28;5050929;28;20036;-92
2023/08/25 06:32:43;;;;;;;10.05;7.90;;;;;;;25.43;54.81;93222.75;5044917;28;20044;-92
2023/08/25 06:35:12;;;;;;;8.68;6.97;;;;;;;25.41;54.76;93226.06;5049520;28;20104;-93
2023/08/25 06:37:38;;;;;;;10.20;7.35;;;;;;;25.44;54.88;93219.41;5038779;28;20040;-92
2023/08/25 06:40:05;;;;;;;7.93;6.68;;;;;;;25.47;54.62;93228.63;5045909;28;20467;-92
2023/08/25 06:42:31;;;;;;;8.30;7.15;;;;;;;25.51;54.26;93226.22;5053120;28;20075;-93
2023/08/25 06:44:56;;;;;;;6.70;5.93;;;;;;;25.51;54.52;93229.72;5048078;28;20117;-92
2023/08/25 06:47:22;;;;;;;6.28;5.10;;;;;;;25.50;54.77;93219.94;5047963;28;20048;-92
2023/08/25 06:49:47;;;;;;;9.20;6.55;;;;;;;25.51;54.62;93215.88;5044590;28;20040;-93
2023/08/25 06:52:13;;;;;;;7.22;6.13;;;;;;;25.55;54.52;93221.72;5041260;28;20044;-92
2023/08/25 06:54:38;;;;;;;6.05;5.05;;;;;;;25.55;54.32;93221.00;5046620;28;20036;-92
2023/08/25 06:57:04;;;;;;;5.85;5.03;;;;;;;25.60;54.00;93220.06;5041840;28;20448;-92
2023/08/25 06:59:29;;;;;;;7.00;5.03;;;;;;;25.58;54.30;93217.09;5043851;28;20039;-92
2023/08/25 07:01:55;;;;;;;7.78;5.03;;;;;;;25.60;54.44;93218.03;5038540;28;20043;-93
2023/08/25 07:04:20;;;;;;;5.90;4.93;;;;;;;25.61;54.27;93229.81;5042882;28;20396;-92
2023/08/25 07:06:45;;;;;;;7.15;5.18;;;;;;;25.59;54.49;93222.09;5022946;28;20047;-92
2023/08/25 07:09:13;;;;;;;8.05;5.28;;;;;;;25.58;54.65;93206.78;5041914;28;20071;-92
2023/08/25 07:11:38;;;;;;;7.25;5.13;;;;;;;25.58;54.61;93214.34;5044096;28;20032;-92
2023/08/25 07:14:04;;;;;;;6.72;5.40;;;;;;;25.61;54.76;93218.75;5046535;28;20518;-92
2023/08/25 07:16:29;;;;;;;5.68;4.97;;;;;;;25.60;54.47;93212.47;5050419;28;20048;-93
2023/08/25 07:18:54;;;;;;;5.88;4.53;;;;;;;25.65;54.31;93202.53;5026802;28;20052;-92
2023/08/25 07:21:21;;;;;;;7.03;4.68;;;;;;;25.65;54.38;93205.28;5038960;28;20036;-93
2023/08/25 07:23:47;;;;;;;5.45;4.78;;;;;;;25.66;54.09;93201.22;5038272;28;20032;-92
2023/08/25 07:26:12;;;;;;;6.53;4.28;;;;;;;25.69;54.47;93216.72;5049623;28;20045;-92
2023/08/25 07:28:38;;;;;;;5.68;4.47;;;;;;;25.71;54.33;93208.56;5032954;28;20056;-92
2023/08/25 07:31:04;;;;;;;15.82;5.28;;;;;;;25.70;54.04;93204.34;5046458;28;20049;-93
2023/08/25 07:33:30;;;;;;;6.03;4.18;;;;;;;25.71;54.28;93200.28;5054511;28;20071;-92
2023/08/25 07:35:57;;;;;;;5.10;4.13;;;;;;;25.72;54.34;93204.50;5053238;28;20048;-92
2023/08/25 07:38:23;;;;;;;7.53;4.15;;;;;;;25.76;54.33;93199.31;5034539;28;20123;-92
2023/08/25 07:40:48;;;;;;;5.20;3.72;;;;;;;25.78;54.23;93198.72;5042869;28;20444;-93
2023/08/25 07:43:14;;;;;;;4.75;3.70;;;;;;;25.74;54.63;93193.59;5050862;28;20502;-92
2023/08/25 07:45:39;;;;;;;7.10;3.97;;;;;;;25.77;54.38;93202.78;5049137;28;20048;-92
2023/08/25 07:48:05;;;;;;;4.93;3.70;;;;;;;25.78;54.29;93212.56;5047997;28;20045;-93
2023/08/25 07:50:31;;;;;;;4.80;3.78;;;;;;;25.78;54.44;93210.53;5036353;28;20097;-91
2023/08/25 07:52:56;;;;;;;5.65;4.30;;;;;;;25.77;54.10;93203.53;5029088;28;20402;-92
2023/08/25 07:55:22;;;;;;;6.15;3.95;;;;;;;25.80;53.95;93204.44;5052356;28;20082;-92
2023/08/25 07:57:47;;;;;;;5.20;3.72;;;;;;;25.82;53.92;93208.13;5036712;28;20036;-93
2023/08/25 08:00:15;;;;;;;4.47;3.55;;;;;;;25.86;53.97;93207.72;5052507;28;20522;-92
2023/08/25 08:02:47;;;;;;;4.55;3.28;;;;;;;25.84;53.71;93199.25;5060001;28;20029;-92
2023/08/25 08:05:12;;;;;;;4.43;2.65;;;;;;;25.85;53.81;93195.91;5050157;28;20067;-92
2023/08/25 08:07:38;;;;;;;4.88;3.10;;;;;;;25.87;53.72;93200.88;5044223;28;20503;-92
2023/08/25 08:10:05;;;;;;;4.72;3.50;;;;;;;25.85;53.70;93192.41;5061806;28;20044;-92
2023/08/25 08:12:31;;;;;;;4.57;3.50;;;;;;;25.84;53.93;93199.25;5043288;28;20068;-92
2023/08/25 08:14:57;;;;;;;3.58;3.00;;;;;;;25.86;53.91;93199.41;5054146;28;20044;-93
2023/08/25 08:17:22;;;;;;;4.40;3.40;;;;;;;25.88;53.79;93186.47;5042288;28;20041;-92
2023/08/25 08:19:49;;;;;;;3.63;3.05;;;;;;;25.84;54.10;93179.88;5047899;28;20063;-93
2023/08/25 08:22:14;;;;;;;4.35;3.35;;;;;;;25.85;53.83;93178.56;5045924;28;20036;-92
2023/08/25 08:24:46;;;;;;;3.70;2.88;;;;;;;25.84;53.81;93188.91;5045699;28;20380;-93
2023/08/25 08:27:12;;;;;;;3.92;2.97;;;;;;;25.84;54.23;93194.44;5040232;28;20037;-93
2023/08/25 08:29:38;;;;;;;7.07;3.30;;;;;;;25.87;54.15;93209.19;5041021;28;20044;-93
2023/08/25 08:32:05;;;;;;;4.60;3.00;;;;;;;25.87;53.99;93207.16;5036775;28;20075;-92
2023/08/25 08:34:31;;;;;;;3.97;2.53;;;;;;;25.91;53.81;93201.22;5053859;28;20040;-93
2023/08/25 08:36:56;;;;;;;3.92;2.92;;;;;;;25.89;53.96;93204.56;5053568;28;20044;-92
2023/08/25 08:39:21;;;;;;;3.28;2.60;;;;;;;25.89;53.80;93207.34;5060776;28;20107;-92
2023/08/25 08:41:47;;;;;;;5.63;3.08;;;;;;;25.92;53.62;93211.75;5051345;28;20131;-92
2023/08/25 08:44:14;;;;;;;4.40;3.38;;;;;;;25.92;53.94;93203.44;5045775;28;20037;-91
2023/08/25 08:46:39;;;;;;;3.97;2.30;;;;;;;25.90;53.83;93191.44;5032962;28;20045;-92
2023/08/25 08:49:04;;;;;;;7.80;3.92;;;;;;;25.92;53.98;93197.91;5043178;28;20048;-93
2023/08/25 08:51:30;;;;;;;7.50;3.45;;;;;;;25.87;54.18;93209.94;5052020;28;20036;-92
2023/08/25 08:53:56;;;;;;;6.32;2.97;;;;;;;25.89;54.04;93198.28;5050253;28;20044;-93
2023/08/25 08:56:22;;;;;;;5.22;3.08;;;;;;;25.90;53.86;93211.56;5045996;28;20588;-92
2023/08/25 08:58:48;;;;;;;4.43;2.72;;;;;;;25.85;54.14;93209.03;5029045;28;20032;-93
2023/08/25 09:01:15;;;;;;;4.10;2.95;;;;;;;25.88;54.03;93216.22;5047047;28;20086;-92
2023/08/25 09:03:40;;;;;;;3.13;2.40;;;;;;;25.88;53.94;93208.63;5062251;28;20123;-92
2023/08/25 09:06:06;;;;;;;6.28;2.90;;;;;;;25.93;53.92;93204.91;5051789;28;20052;-92
2023/08/25 09:08:31;;;;;;;2.95;2.65;;;;;;;25.90;54.08;93208.06;5052236;28;20035;-92
2023/08/25 09:11:03;;;;;;;5.30;2.80;;;;;;;25.92;53.85;93211.00;5050560;28;20063;-92
2023/08/25 09:13:33;;;;;;;4.03;2.65;;;;;;;25.93;54.06;93218.03;5054281;28;20051;-93
2023/08/25 09:15:58;;;;;;;5.93;2.17;;;;;;;25.90;53.67;93219.88;5033789;28;20463;-93
2023/08/25 09:18:25;;;;;;;3.85;2.42;;;;;;;25.93;54.04;93223.56;5048797;28;20269;-92
2023/08/25 09:20:50;;;;;;;2.72;2.00;;;;;;;25.99;53.91;93228.84;5032301;28;20037;-92
2023/08/25 09:23:15;;;;;;;3.70;2.72;;;;;;;25.95;53.98;93218.94;5046369;28;20483;-92
2023/08/25 09:25:41;;;;;;;3.53;2.63;;;;;;;25.95;54.04;93212.66;5034797;28;20039;-92
2023/08/25 09:28:06;;;;;;;3.33;2.53;;;;;;;25.91;54.06;93213.03;5045280;28;20098;-92
2023/08/25 09:30:39;;;;;;;4.28;2.35;;;;;;;25.93;54.05;93223.56;5042314;28;20044;-92
2023/08/25 09:33:14;;;;;;;2.58;2.38;;;;;;;25.92;54.27;93219.31;5042223;28;20060;-93
2023/08/25 09:35:40;;;;;;;3.30;2.40;;;;;;;25.91;54.17;93204.75;5046486;28;20050;-92
2023/08/25 09:38:05;;;;;;;3.05;2.65;;;;;;;25.93;54.02;93215.25;5014200;28;20045;-93
2023/08/25 09:40:31;;;;;;;2.88;2.40;;;;;;;25.89;54.18;93210.09;5038380;28;20064;-93
2023/08/25 09:43:03;;;;;;;3.88;2.63;;;;;;;25.91;53.99;93218.59;5017431;28;20045;-92
2023/08/25 09:45:29;;;;;;;5.30;2.60;;;;;;;25.94;54.04;93223.00;5020159;28;20041;-92
2023/08/25 09:48:09;;;;;;;3.55;2.33;;;;;;;25.91;53.79;93217.84;5004355;28;20041;-92
2023/08/25 09:50:39;;;;;;;2.40;2.00;;;;;;;25.97;53.74;93223.16;5021169;28;20064;-92
2023/08/25 09:53:08;;;;;;;2.78;2.05;;;;;;;25.94;54.02;93216.72;5016311;28;20062;-92
2023/08/25 09:55:35;;;;;;;2.90;2.10;;;;;;;25.93;54.13;93216.00;5045078;28;20055;-92
2023/08/25 09:58:00;;;;;;;2.38;1.83;;;;;;;25.98;53.81;93219.84;5015528;28;20493;-92
2023/08/25 10:00:26;;;;;;;3.67;2.83;;;;;;;25.94;54.21;93216.72;5018084;28;20041;-92
2023/08/25 10:02:53;;;;;;;3.40;2.38;;;;;;;25.95;53.86;93227.25;5037899;28;20041;-93
2023/08/25 10:05:18;;;;;;;3.00;2.30;;;;;;;25.94;54.16;93219.50;5016060;28;20079;-92
2023/08/25 10:07:44;;;;;;;3.63;2.58;;;;;;;25.95;53.96;93227.25;5029282;28;20037;-92
2023/08/25 10:10:09;;;;;;;3.28;2.85;;;;;;;25.93;54.28;93227.06;5046477;28;20053;-92
2023/08/25 10:12:37;;;;;;;3.25;2.92;;;;;;;25.95;53.98;93234.81;5051028;28;20047;-92
2023/08/25 10:15:04;;;;;;;4.78;3.22;;;;;;;25.93;54.18;93248.50;5048112;28;20099;-91
2023/08/25 10:17:31;;;;;;;7.82;3.25;;;;;;;25.97;53.87;93237.75;5047043;28;20090;-92
2023/08/25 10:19:57;;;;;;;2.78;1.80;;;;;;;25.96;54.00;93247.38;5064739;28;20062;-92
2023/08/25 10:22:23;;;;;;;4.35;2.95;;;;;;;25.93;53.95;93254.75;5050997;28;20498;-92
2023/08/25 10:24:49;;;;;;;3.60;2.55;;;;;;;25.96;53.61;93252.91;5043071;28;20044;-92
2023/08/25 10:27:14;;;;;;;3.50;2.58;;;;;;;25.99;54.05;93253.78;5047247;28;20517;-93
2023/08/25 10:29:39;;;;;;;4.10;2.45;;;;;;;25.95;54.40;93248.66;5037785;28;20040;-93
2023/08/25 10:32:05;;;;;;;5.05;2.58;;;;;;;25.92;54.51;93249.78;5032238;28;20122;-92
2023/08/25 10:34:35;;;;;;;1.88;1.67;;;;;;;25.98;53.91;93268.97;5040429;28;20098;-92
2023/08/25 10:37:10;;;;;;;5.90;2.38;;;;;;;25.98;54.15;93261.38;5067146;28;20074;-92
2023/08/25 10:39:44;;;;;;;3.22;2.22;;;;;;;26.01;54.04;93268.53;5047688;28;20056;-92
2023/08/25 10:42:09;;;;;;;3.08;2.50;;;;;;;26.01;53.92;93273.34;5079437;28;20513;-92
2023/08/25 10:44:41;;;;;;;4.30;2.50;;;;;;;25.98;54.31;93280.03;5045213;28;20101;-93
2023/08/25 10:47:08;;;;;;;2.25;1.85;;;;;;;26.03;53.99;93276.28;5034006;28;20123;-92
2023/08/25 10:49:38;;;;;;;2.70;2.15;;;;;;;25.98;54.18;93282.81;5050730;28;20383;-92
2023/08/25 10:52:16;;;;;;;2.58;2.30;;;;;;;25.95;54.25;93290.22;5043905;28;20041;-92
2023/08/25 10:54:42;;;;;;;3.05;1.73;;;;;;;25.99;53.88;93296.06;5041512;28;20040;-93
2023/08/25 10:57:26;;;;;;;4.43;2.38;;;;;;;25.94;54.28;93289.47;5048587;28;20051;-92
2023/08/25 10:59:57;;;;;;;1.77;1.60;;;;;;;25.98;54.39;93289.09;5046370;28;20071;-92
2023/08/25 11:02:37;;;;;;;36.67;32.70;;;;;;;25.92;54.23;93288.56;5047718;28;20121;-91
2023/08/25 11:05:31;;;;;;;48.38;43.17;;;;;;;25.89;54.38;93284.88;5056697;28;20068;-92
2023/08/25 11:08:01;;;;;;;4.72;4.10;;;;;;;25.94;54.34;93281.16;5078414;28;20044;-92
2023/08/25 11:10:29;;;;;;;110.03;89.82;;;;;;;25.93;54.54;93285.22;5048160;28;20040;-92
2023/08/25 11:12:54;;;;;;;39.97;31.08;;;;;;;25.93;54.32;93287.28;5070394;28;20120;-92
2023/08/25 11:15:22;;;;;;;6.82;6.07;;;;;;;25.96;54.16;93294.44;5044928;28;20066;-92
2023/08/25 11:17:48;;;;;;;5.72;4.25;;;;;;;25.98;54.13;93280.03;5038326;28;20097;-92
2023/08/25 11:20:15;;;;;;;7.65;4.57;;;;;;;25.97;54.14;93273.03;5032666;28;20495;-92